Time;durP1;ratioP1;P1;durP2;ratioP2;P2;SDS_P1;SDS_P2;PMS_P1;PMS_P2;Temp;Humidity;BMP_temperature;BMP_pressure;BME280_temperature;BME280_humidity;BME280_pressure;Samples;Min_cycle;Max_cycle;Signal;HPM_P1;HPM_P2
2021/03/20 00:00:29;;;;;;;3.60;2.30;;;-1.50;99.90;;;;;;5013358;28;20468;-86
2021/03/20 00:02:55;;;;;;;4.35;2.28;;;-1.40;99.90;;;;;;5013278;28;20772;-86
2021/03/20 00:05:21;;;;;;;5.97;2.77;;;-1.40;99.90;;;;;;5019873;28;20430;-86
2021/03/20 00:07:48;;;;;;;7.95;2.72;;;-1.40;99.90;;;;;;5023566;28;20376;-87
2021/03/20 00:10:17;;;;;;;5.28;2.60;;;-1.40;99.90;;;;;;5039457;28;20389;-86
2021/03/20 00:12:48;;;;;;;7.07;3.03;;;-1.40;99.90;;;;;;5020993;28;20396;-87
2021/03/20 00:15:24;;;;;;;6.47;2.60;;;-1.40;99.90;;;;;;5037167;28;20482;-86
2021/03/20 00:17:50;;;;;;;4.57;2.40;;;-1.30;99.90;;;;;;5022832;28;20411;-86
2021/03/20 00:20:24;;;;;;;4.82;2.53;;;-1.30;99.90;;;;;;5021263;28;20392;-86
2021/03/20 00:22:50;;;;;;;7.07;2.58;;;-1.30;99.90;;;;;;5020750;28;20386;-86
2021/03/20 00:25:27;;;;;;;6.38;2.80;;;-1.30;99.90;;;;;;5036917;28;20396;-86
2021/03/20 00:27:53;;;;;;;7.22;3.05;;;-1.30;99.90;;;;;;5020488;28;20391;-86
2021/03/20 00:30:20;;;;;;;7.33;2.13;;;-1.40;99.90;;;;;;5039834;28;20386;-88
2021/03/20 00:32:45;;;;;;;5.45;2.40;;;-1.30;99.90;;;;;;5025320;28;20916;-86
2021/03/20 00:35:12;;;;;;;4.35;2.58;;;-1.30;99.90;;;;;;5032667;28;20380;-86
2021/03/20 00:37:38;;;;;;;5.63;2.83;;;-1.30;99.90;;;;;;5014277;28;20391;-86
2021/03/20 00:40:07;;;;;;;4.78;2.97;;;-1.30;99.90;;;;;;5010417;28;20390;-86
2021/03/20 00:42:33;;;;;;;5.78;2.85;;;-1.30;99.90;;;;;;5012468;28;20385;-86
2021/03/20 00:44:59;;;;;;;5.25;3.13;;;-1.30;99.90;;;;;;5012638;28;20906;-86
2021/03/20 00:47:24;;;;;;;5.40;3.17;;;-1.30;99.90;;;;;;5012838;28;20457;-86
2021/03/20 00:49:50;;;;;;;5.10;2.60;;;-1.20;99.90;;;;;;5012699;28;20766;-86
2021/03/20 00:52:15;;;;;;;5.93;3.00;;;-1.20;99.90;;;;;;5030355;28;20400;-87
2021/03/20 00:54:41;;;;;;;7.67;3.13;;;-1.20;99.90;;;;;;5012781;28;20857;-86
2021/03/20 00:57:06;;;;;;;7.18;3.55;;;-1.20;99.90;;;;;;5030118;28;20381;-86
2021/03/20 00:59:32;;;;;;;5.47;3.30;;;-1.20;99.90;;;;;;5012796;28;20397;-86
2021/03/20 01:01:58;;;;;;;5.38;3.08;;;-1.20;99.90;;;;;;5011614;28;20412;-86
2021/03/20 01:04:23;;;;;;;6.83;3.43;;;-1.20;99.90;;;;;;5012754;28;20420;-86
2021/03/20 01:06:49;;;;;;;6.27;3.77;;;-1.10;99.90;;;;;;5012483;28;20370;-87
2021/03/20 01:09:15;;;;;;;6.78;3.58;;;-1.00;99.90;;;;;;5011644;28;20389;-86
2021/03/20 01:11:40;;;;;;;8.23;4.60;;;-1.10;99.90;;;;;;5030076;28;20397;-86
2021/03/20 01:14:06;;;;;;;7.00;3.70;;;-1.10;99.90;;;;;;5012226;28;20633;-86
2021/03/20 01:16:32;;;;;;;7.07;4.37;;;-1.10;99.90;;;;;;5012223;28;20929;-86
2021/03/20 01:18:57;;;;;;;6.30;3.87;;;-1.20;99.90;;;;;;5012142;28;20431;-86
2021/03/20 01:21:24;;;;;;;8.87;4.50;;;-1.20;99.90;;;;;;5012514;28;20393;-86
2021/03/20 01:23:50;;;;;;;6.85;3.53;;;-1.20;99.90;;;;;;5012572;28;20779;-87
2021/03/20 01:26:16;;;;;;;5.35;3.25;;;-1.10;99.90;;;;;;5012255;28;20432;-86
2021/03/20 01:28:42;;;;;;;6.18;3.20;;;-1.10;99.90;;;;;;5029587;28;20479;-86
2021/03/20 01:31:11;;;;;;;5.90;2.83;;;-1.00;99.90;;;;;;5029784;28;20431;-86
2021/03/20 01:33:37;;;;;;;5.57;2.65;;;-1.10;99.90;;;;;;5011929;28;20473;-86
2021/03/20 01:36:03;;;;;;;5.55;2.92;;;-1.10;99.90;;;;;;5015975;28;20978;-86
2021/03/20 01:38:29;;;;;;;4.90;2.70;;;-1.00;99.90;;;;;;5033159;28;20373;-86
2021/03/20 01:41:01;;;;;;;5.30;3.10;;;-1.10;99.90;;;;;;5015812;28;20373;-87
2021/03/20 01:43:29;;;;;;;5.13;2.72;;;-1.00;99.90;;;;;;5015594;28;20395;-86
2021/03/20 01:46:33;;;;;;;5.50;2.70;;;-1.00;99.90;;;;;;5015940;28;20413;-85
2021/03/20 01:49:00;;;;;;;6.05;2.70;;;-0.90;99.90;;;;;;5015296;28;20378;-86
2021/03/20 01:51:26;;;;;;;6.13;2.60;;;-1.00;99.90;;;;;;5015753;28;20411;-86
2021/03/20 01:53:55;;;;;;;4.68;2.90;;;-0.90;99.90;;;;;;5033233;28;20386;-86
2021/03/20 01:56:32;;;;;;;5.00;2.72;;;-0.80;99.90;;;;;;5033379;28;20389;-87
2021/03/20 01:58:57;;;;;;;5.93;2.77;;;-0.80;99.90;;;;;;5015348;28;20926;-87
2021/03/20 02:01:29;;;;;;;5.65;2.72;;;-0.80;99.90;;;;;;5033798;28;20409;-86
2021/03/20 02:03:56;;;;;;;4.82;2.67;;;-0.80;99.90;;;;;;5015659;28;20382;-85
2021/03/20 02:06:23;;;;;;;6.40;3.38;;;-0.80;99.90;;;;;;5015531;28;20476;-88
2021/03/20 02:08:51;;;;;;;6.20;3.70;;;-0.80;99.90;;;;;;5015296;28;20381;-86
2021/03/20 02:11:26;;;;;;;5.75;3.65;;;-0.80;99.90;;;;;;5015174;28;20412;-86
2021/03/20 02:14:11;;;;;;;5.35;3.05;;;-0.90;99.90;;;;;;5015295;28;20389;-86
2021/03/20 02:16:48;;;;;;;5.43;2.90;;;-0.80;99.90;;;;;;5015289;28;20484;-86
2021/03/20 02:19:36;;;;;;;5.43;2.97;;;-0.80;99.90;;;;;;5014990;28;20389;-87
2021/03/20 02:22:28;;;;;;;5.83;3.13;;;-0.70;99.90;;;;;;5014960;28;20381;-86
2021/03/20 02:25:21;;;;;;;6.38;3.00;;;-0.70;99.90;;;;;;5015016;28;20508;-87
2021/03/20 02:28:09;;;;;;;4.75;2.67;;;-0.70;99.90;;;;;;5032426;28;20453;-87
2021/03/20 02:31:00;;;;;;;5.75;2.60;;;-0.80;99.90;;;;;;5032804;28;20408;-86
2021/03/20 02:33:34;;;;;;;6.93;3.10;;;-0.80;99.90;;;;;;5014636;28;20432;-87
2021/03/20 02:36:23;;;;;;;4.55;2.65;;;-0.90;99.90;;;;;;5015327;28;20409;-86
2021/03/20 02:39:01;;;;;;;7.38;2.92;;;-1.00;99.90;;;;;;5014505;28;20391;-87
2021/03/20 02:41:31;;;;;;;7.53;2.77;;;-1.00;99.90;;;;;;5014970;28;20397;-87
2021/03/20 02:44:19;;;;;;;5.60;2.75;;;-0.80;99.90;;;;;;5014841;28;20903;-86
2021/03/20 02:46:55;;;;;;;5.35;3.00;;;-0.80;99.90;;;;;;5014823;28;20393;-86
2021/03/20 02:49:48;;;;;;;5.55;2.53;;;-0.80;99.90;;;;;;5014498;28;20417;-86
2021/03/20 02:52:24;;;;;;;5.88;3.05;;;-0.80;99.90;;;;;;5014324;28;20402;-86
2021/03/20 02:54:55;;;;;;;4.72;2.50;;;-0.70;99.90;;;;;;5014602;28;20437;-86
2021/03/20 02:57:25;;;;;;;5.07;2.60;;;-0.70;99.90;;;;;;5031935;28;20431;-86
2021/03/20 03:00:09;;;;;;;5.13;2.85;;;-0.80;99.90;;;;;;5014618;28;20393;-86
2021/03/20 03:02:36;;;;;;;5.90;3.07;;;-0.70;99.90;;;;;;5014007;28;20384;-86
2021/03/20 03:05:09;;;;;;;6.38;2.80;;;-0.80;99.90;;;;;;5014625;28;20370;-87
2021/03/20 03:07:46;;;;;;;5.37;2.90;;;-0.80;99.90;;;;;;5014218;28;20956;-87
2021/03/20 03:10:21;;;;;;;6.28;2.92;;;-0.80;99.90;;;;;;5014266;28;20407;-85
2021/03/20 03:12:53;;;;;;;4.90;2.90;;;-0.70;99.90;;;;;;5014154;28;20409;-86
2021/03/20 03:15:26;;;;;;;4.40;2.60;;;-0.70;99.90;;;;;;5014251;28;20933;-87
2021/03/20 03:17:58;;;;;;;5.72;3.10;;;-0.60;99.90;;;;;;5014037;28;20744;-87
2021/03/20 03:20:28;;;;;;;5.25;3.35;;;-0.60;99.90;;;;;;5014314;28;20377;-87
2021/03/20 03:23:06;;;;;;;4.63;2.72;;;-0.60;99.90;;;;;;5014399;28;20377;-86
2021/03/20 03:25:35;;;;;;;3.55;2.30;;;-0.50;99.90;;;;;;5014257;28;20444;-87
2021/03/20 03:28:05;;;;;;;6.30;2.95;;;-0.50;99.90;;;;;;5031277;28;20392;-86
2021/03/20 03:30:31;;;;;;;5.15;2.80;;;-0.50;99.90;;;;;;5031689;28;20864;-86
2021/03/20 03:33:20;;;;;;;5.78;3.17;;;-0.60;99.90;;;;;;5013464;28;20432;-87
2021/03/20 03:35:50;;;;;;;7.07;2.90;;;-0.60;99.90;;;;;;5014089;28;20392;-87
2021/03/20 03:38:46;;;;;;;2.60;2.40;;;-0.60;99.90;;;;;;5013894;28;20401;-87
2021/03/20 03:41:35;;;;;;;4.75;2.38;;;-0.50;99.90;;;;;;5031452;28;20457;-87
2021/03/20 03:44:02;;;;;;;4.93;2.70;;;-0.50;99.90;;;;;;5013629;28;20417;-87
2021/03/20 03:46:34;;;;;;;4.85;2.90;;;-0.50;99.90;;;;;;5013528;28;20528;-87
2021/03/20 03:49:05;;;;;;;6.53;2.72;;;-0.60;99.90;;;;;;5031052;28;20813;-87
2021/03/20 03:51:31;;;;;;;5.25;2.88;;;-0.60;99.90;;;;;;5031225;28;20439;-88
2021/03/20 03:53:58;;;;;;;6.07;3.03;;;-0.60;99.90;;;;;;5013679;28;20381;-87
2021/03/20 03:56:50;;;;;;;4.68;2.78;;;-0.60;99.90;;;;;;5013734;28;20481;-86
2021/03/20 03:59:34;;;;;;;5.65;2.90;;;-0.60;99.90;;;;;;5013090;28;20381;-86
2021/03/20 04:02:10;;;;;;;5.05;2.70;;;-0.60;99.90;;;;;;5031104;28;20439;-87
2021/03/20 04:05:01;;;;;;;5.18;2.67;;;-0.80;99.90;;;;;;5013574;28;20389;-87
2021/03/20 04:07:49;;;;;;;5.85;2.33;;;-0.70;99.90;;;;;;5013078;28;20740;-86
2021/03/20 04:10:33;;;;;;;5.38;2.92;;;-0.80;99.90;;;;;;5013251;28;20389;-87
2021/03/20 04:13:32;;;;;;;4.82;2.92;;;-0.80;99.90;;;;;;5030876;28;20962;-87
2021/03/20 04:16:11;;;;;;;3.17;2.30;;;-0.70;99.90;;;;;;5013154;28;20744;-87
2021/03/20 04:19:03;;;;;;;4.18;3.00;;;-0.60;99.90;;;;;;5012668;28;20390;-86
2021/03/20 04:22:08;;;;;;;6.28;3.03;;;-0.60;99.90;;;;;;4987025;28;20386;-86
2021/03/20 04:24:40;;;;;;;5.93;2.88;;;-0.60;99.90;;;;;;5010002;28;20405;-87
2021/03/20 04:27:08;;;;;;;4.30;2.70;;;-0.60;99.90;;;;;;5012429;28;20457;-87
2021/03/20 04:29:41;;;;;;;4.35;2.60;;;-0.50;99.90;;;;;;5012849;28;20378;-87
2021/03/20 04:32:16;;;;;;;3.13;2.40;;;-0.60;99.90;;;;;;5030424;28;20737;-86
2021/03/20 04:34:56;;;;;;;3.90;2.50;;;-0.50;99.90;;;;;;5012960;28;20394;-87
2021/03/20 04:37:29;;;;;;;5.10;2.90;;;-0.40;99.90;;;;;;5012840;28;20396;-86
2021/03/20 04:39:58;;;;;;;3.90;2.65;;;-0.50;99.90;;;;;;5030742;28;20381;-87
2021/03/20 04:42:30;;;;;;;5.22;3.00;;;-0.50;99.90;;;;;;5030684;28;20387;-87
2021/03/20 04:45:04;;;;;;;3.80;2.47;;;-0.50;99.90;;;;;;5030431;28;20389;-86
2021/03/20 04:47:36;;;;;;;3.95;2.72;;;-0.40;99.90;;;;;;5012292;28;20390;-87
2021/03/20 04:50:07;;;;;;;6.13;3.40;;;-0.40;99.90;;;;;;5012681;28;20373;-87
2021/03/20 04:52:42;;;;;;;4.75;2.70;;;-0.40;99.90;;;;;;5012636;28;20409;-87
2021/03/20 04:55:10;;;;;;;4.10;2.70;;;-0.50;99.90;;;;;;5030288;28;20389;-87
2021/03/20 04:57:42;;;;;;;6.15;2.75;;;-0.40;99.90;;;;;;5012333;28;20381;-86
2021/03/20 05:00:13;;;;;;;7.93;3.30;;;-0.40;99.90;;;;;;5012569;28;20420;-87
2021/03/20 05:02:53;;;;;;;6.50;3.03;;;-0.50;99.90;;;;;;5012931;28;20388;-87
2021/03/20 05:05:28;;;;;;;5.07;2.70;;;-0.50;99.90;;;;;;5012735;28;20480;-86
2021/03/20 05:07:58;;;;;;;5.53;3.00;;;-0.40;99.90;;;;;;5012461;28;20401;-87
2021/03/20 05:10:33;;;;;;;5.07;3.05;;;-0.40;99.90;;;;;;5033096;28;20446;-86
2021/03/20 05:13:00;;;;;;;4.20;2.78;;;-0.40;99.90;;;;;;5016436;28;20420;-87
2021/03/20 05:15:33;;;;;;;5.15;3.25;;;-0.40;99.90;;;;;;5016562;28;20892;-87
2021/03/20 05:17:59;;;;;;;5.45;3.13;;;-0.30;99.90;;;;;;5016150;28;20892;-87
2021/03/20 05:20:25;;;;;;;4.75;2.90;;;-0.40;99.90;;;;;;5034217;28;20736;-86
2021/03/20 05:22:52;;;;;;;5.55;3.00;;;-0.40;99.90;;;;;;5034149;28;20387;-86
2021/03/20 05:25:23;;;;;;;5.00;2.90;;;-0.40;99.90;;;;;;5016035;28;20381;-86
2021/03/20 05:27:49;;;;;;;5.03;3.25;;;-0.40;99.90;;;;;;5033678;28;20464;-86
2021/03/20 05:30:16;;;;;;;6.35;3.03;;;-0.30;99.90;;;;;;5016367;28;20810;-88
2021/03/20 05:32:41;;;;;;;6.63;3.33;;;-0.30;99.90;;;;;;5015931;28;20393;-87
2021/03/20 05:35:20;;;;;;;6.72;3.15;;;-0.30;99.90;;;;;;5016098;28;20434;-87
2021/03/20 05:37:46;;;;;;;4.35;3.10;;;-0.20;99.90;;;;;;5015660;28;20385;-87
2021/03/20 05:40:22;;;;;;;5.18;3.40;;;-0.20;99.90;;;;;;5033565;28;20382;-86
2021/03/20 05:42:57;;;;;;;7.03;3.20;;;-0.20;99.90;;;;;;5015988;28;20466;-86
2021/03/20 05:45:38;;;;;;;5.90;3.20;;;-0.20;99.90;;;;;;5015983;28;20766;-87
2021/03/20 05:48:24;;;;;;;5.50;3.08;;;-0.10;99.90;;;;;;5015631;28;20389;-86
2021/03/20 05:51:19;;;;;;;5.25;3.15;;;-0.10;99.90;;;;;;5033454;28;20918;-86
2021/03/20 05:53:50;;;;;;;6.13;3.33;;;0.00;99.90;;;;;;5033688;28;20888;-87
2021/03/20 05:56:49;;;;;;;5.20;2.78;;;0.00;99.90;;;;;;5015775;28;20373;-87
2021/03/20 05:59:39;;;;;;;4.35;2.53;;;0.10;99.90;;;;;;5015337;28;20390;-86
2021/03/20 06:02:05;;;;;;;3.80;2.65;;;0.10;99.90;;;;;;5015313;28;20373;-87
2021/03/20 06:04:33;;;;;;;5.80;2.90;;;0.20;99.90;;;;;;5033139;28;20468;-87
2021/03/20 06:07:37;;;;;;;4.77;3.00;;;0.20;99.90;;;;;;5015348;28;20409;-87
2021/03/20 06:10:19;;;;;;;5.93;2.90;;;0.20;99.90;;;;;;5015433;28;20440;-87
2021/03/20 06:12:57;;;;;;;5.43;3.25;;;0.30;99.90;;;;;;5015632;28;20896;-86
2021/03/20 06:15:41;;;;;;;5.18;2.80;;;0.30;99.90;;;;;;5015416;28;20416;-86
2021/03/20 06:18:28;;;;;;;5.60;3.15;;;0.40;99.90;;;;;;5014818;28;20385;-86
2021/03/20 06:20:59;;;;;;;4.10;2.90;;;0.50;99.90;;;;;;5032878;28;20393;-86
2021/03/20 06:23:50;;;;;;;7.90;3.22;;;0.60;99.90;;;;;;5032845;28;20473;-87
2021/03/20 06:26:27;;;;;;;5.82;3.30;;;0.70;99.90;;;;;;5032815;28;20856;-87
2021/03/20 06:29:14;;;;;;;5.50;3.25;;;0.90;99.90;;;;;;5014508;28;20378;-86
2021/03/20 06:31:51;;;;;;;7.70;3.30;;;0.90;99.90;;;;;;5014786;28;20401;-86
2021/03/20 06:34:23;;;;;;;5.63;2.88;;;0.90;99.90;;;;;;5015054;28;20393;-87
2021/03/20 06:37:08;;;;;;;4.78;3.10;;;1.00;99.90;;;;;;5014836;28;20745;-87
2021/03/20 06:39:52;;;;;;;6.55;3.42;;;1.00;99.90;;;;;;4984782;28;20385;-87
2021/03/20 06:42:20;;;;;;;5.32;3.92;;;1.10;99.90;;;;;;5032488;28;20804;-87
2021/03/20 06:44:48;;;;;;;6.93;4.03;;;1.20;99.90;;;;;;5014754;28;21011;-87
2021/03/20 06:47:33;;;;;;;6.18;3.92;;;1.20;99.90;;;;;;5014474;28;20388;-87
2021/03/20 06:50:16;;;;;;;7.43;4.13;;;1.20;99.90;;;;;;5014622;28;20388;-87
2021/03/20 06:52:43;;;;;;;4.60;3.53;;;1.40;99.90;;;;;;5032257;28;20413;-86
2021/03/20 06:55:27;;;;;;;6.43;4.30;;;1.60;99.90;;;;;;5032190;28;20449;-86
2021/03/20 06:57:53;;;;;;;7.43;4.82;;;1.80;99.90;;;;;;5014171;28;20381;-86
2021/03/20 07:00:29;;;;;;;6.32;4.38;;;1.90;99.90;;;;;;5014399;28;20436;-87
2021/03/20 07:03:13;;;;;;;8.70;4.95;;;2.20;99.90;;;;;;5032379;28;20428;-87
2021/03/20 07:06:11;;;;;;;7.07;3.93;;;2.40;99.90;;;;;;5014417;28;20370;-86
2021/03/20 07:08:58;;;;;;;6.88;3.97;;;2.30;99.90;;;;;;5013998;28;20472;-86
2021/03/20 07:11:29;;;;;;;7.40;3.78;;;2.40;99.90;;;;;;5014335;28;20516;-87
2021/03/20 07:14:01;;;;;;;6.43;3.10;;;2.40;99.90;;;;;;5014528;28;20481;-87
2021/03/20 07:16:29;;;;;;;5.18;3.25;;;2.70;99.90;;;;;;5014112;28;20370;-87
2021/03/20 07:18:59;;;;;;;6.93;3.90;;;2.80;99.90;;;;;;5013893;28;20381;-87
2021/03/20 07:21:42;;;;;;;8.32;3.63;;;3.00;99.90;;;;;;5014208;28;20946;-87
2021/03/20 07:24:21;;;;;;;5.80;3.70;;;3.00;99.90;;;;;;5014477;28;20386;-86
2021/03/20 07:26:52;;;;;;;5.50;3.40;;;3.20;99.90;;;;;;5014150;28;20420;-87
2021/03/20 07:29:19;;;;;;;6.18;3.58;;;3.40;99.90;;;;;;5031287;28;20385;-88
2021/03/20 07:31:59;;;;;;;5.88;3.70;;;3.60;99.90;;;;;;5013409;28;20490;-87
2021/03/20 07:34:30;;;;;;;5.03;3.05;;;3.80;99.90;;;;;;5032185;28;20373;-90
2021/03/20 07:37:24;;;;;;;5.75;2.70;;;4.10;99.90;;;;;;5014220;28;21170;-91
2021/03/20 07:39:59;;;;;;;3.85;2.10;;;4.30;99.90;;;;;;5011282;28;20747;-87
2021/03/20 07:42:37;;;;;;;4.15;2.20;;;4.30;99.90;;;;;;5031262;28;20838;-87
2021/03/20 07:45:26;;;;;;;4.85;2.28;;;4.20;99.90;;;;;;5013196;28;20386;-86
2021/03/20 07:47:54;;;;;;;4.32;2.10;;;4.20;99.90;;;;;;5025894;28;20485;-87
2021/03/20 07:50:23;;;;;;;3.38;1.77;;;4.10;99.90;;;;;;5013130;28;20432;-87
2021/03/20 07:53:10;;;;;;;4.97;2.03;;;3.60;99.90;;;;;;5013619;28;20413;-86
2021/03/20 07:56:05;;;;;;;3.47;1.75;;;3.30;99.90;;;;;;4993506;28;20379;-87
2021/03/20 07:58:33;;;;;;;3.03;1.83;;;3.10;99.90;;;;;;5009838;28;20479;-86
2021/03/20 08:01:03;;;;;;;3.85;2.08;;;3.40;99.90;;;;;;5011570;28;20387;-87
2021/03/20 08:03:31;;;;;;;4.78;1.90;;;3.50;99.90;;;;;;5020689;28;20397;-86
2021/03/20 08:06:15;;;;;;;3.35;2.10;;;3.30;99.90;;;;;;5013493;28;20378;-86
2021/03/20 08:08:41;;;;;;;4.72;1.80;;;3.40;99.90;;;;;;5025972;28;20880;-87
2021/03/20 08:11:24;;;;;;;4.00;1.60;;;3.50;99.90;;;;;;4993451;28;20399;-88
2021/03/20 08:13:53;;;;;;;3.92;1.58;;;3.70;97.80;;;;;;5012815;28;20484;-87
2021/03/20 08:16:20;;;;;;;3.67;1.60;;;3.80;97.90;;;;;;5012448;28;20405;-88
2021/03/20 08:18:49;;;;;;;4.00;1.60;;;3.80;97.70;;;;;;5013134;28;20741;-87
2021/03/20 08:21:14;;;;;;;5.80;2.17;;;3.80;97.70;;;;;;5012944;28;20421;-90
2021/03/20 08:24:28;;;;;;;4.30;1.95;;;4.00;98.60;;;;;;5013536;28;20416;-90
2021/03/20 08:27:21;;;;;;;3.17;1.70;;;4.10;97.90;;;;;;5012359;28;20397;-87
2021/03/20 08:30:15;;;;;;;5.05;1.92;;;4.60;98.30;;;;;;5012078;28;20397;-88
2021/03/20 08:32:52;;;;;;;3.10;1.60;;;4.80;96.70;;;;;;4994802;28;20434;-86
2021/03/20 08:35:18;;;;;;;4.20;1.50;;;4.70;96.20;;;;;;5003160;28;20509;-88
2021/03/20 08:38:22;;;;;;;4.60;1.90;;;4.90;96.20;;;;;;5027960;28;20767;-89
2021/03/20 08:40:47;;;;;;;4.32;1.88;;;5.00;94.90;;;;;;5010417;28;20395;-88
2021/03/20 08:43:40;;;;;;;2.93;1.70;;;5.00;93.40;;;;;;5006419;28;20467;-86
2021/03/20 08:46:37;;;;;;;3.78;1.92;;;4.80;92.40;;;;;;5021913;28;20899;-85
2021/03/20 08:49:31;;;;;;;2.60;1.40;;;4.70;93.10;;;;;;5010527;28;20885;-89
2021/03/20 08:52:15;;;;;;;2.10;1.60;;;4.70;93.80;;;;;;5039153;28;20404;-88
2021/03/20 08:55:19;;;;;;;3.95;1.88;;;4.50;92.70;;;;;;5015164;28;20376;-87
2021/03/20 08:57:49;;;;;;;2.97;1.60;;;4.20;92.60;;;;;;5016270;28;20421;-88
2021/03/20 09:00:50;;;;;;;2.85;1.40;;;4.30;93.50;;;;;;5034089;28;20385;-88
2021/03/20 09:03:19;;;;;;;3.08;1.60;;;4.50;94.10;;;;;;5013512;28;20412;-87
2021/03/20 09:06:13;;;;;;;3.65;1.90;;;4.70;93.20;;;;;;5015553;28;20373;-88
2021/03/20 09:08:42;;;;;;;4.13;2.00;;;4.60;91.70;;;;;;5035182;28;20474;-88
2021/03/20 09:11:21;;;;;;;3.08;1.52;;;4.70;92.40;;;;;;5015516;28;20441;-88
2021/03/20 09:13:51;;;;;;;3.80;1.90;;;4.70;92.10;;;;;;5010814;28;20398;-89
2021/03/20 09:16:25;;;;;;;3.47;2.10;;;4.80;92.10;;;;;;5015760;28;20389;-89
2021/03/20 09:18:54;;;;;;;4.43;2.10;;;4.70;91.10;;;;;;5010747;28;20452;-87
2021/03/20 09:21:20;;;;;;;3.22;1.88;;;4.80;92.70;;;;;;5035713;28;20804;-88
2021/03/20 09:23:53;;;;;;;3.57;2.00;;;5.00;93.20;;;;;;5013600;28;20386;-92
2021/03/20 09:26:40;;;;;;;2.35;1.40;;;5.10;91.10;;;;;;5014799;28;20976;-86
2021/03/20 09:29:13;;;;;;;2.00;1.50;;;5.10;92.00;;;;;;5036777;28;20465;-93
2021/03/20 09:32:18;;;;;;;2.38;1.77;;;5.30;91.60;;;;;;5011676;28;20430;-85
2021/03/20 09:34:47;;;;;;;4.60;1.63;;;5.50;91.50;;;;;;5036629;28;20497;-86
2021/03/20 09:37:18;;;;;;;2.67;1.57;;;5.80;91.30;;;;;;5037764;28;20384;-87
2021/03/20 09:39:54;;;;;;;3.20;1.52;;;6.00;90.20;;;;;;5037570;28;20417;-94
2021/03/20 09:42:29;;;;;;;3.33;1.50;;;6.00;87.40;;;;;;5019658;28;20918;-86
2021/03/20 09:45:00;;;;;;;2.30;1.47;;;6.00;90.50;;;;;;5017466;28;20483;-91
2021/03/20 09:47:34;;;;;;;3.25;1.67;;;6.10;89.40;;;;;;5011332;28;20470;-84
2021/03/20 09:50:04;;;;;;;2.92;1.38;;;6.20;88.80;;;;;;5000661;28;20401;-83
2021/03/20 09:52:36;;;;;;;2.97;1.60;;;6.00;85.90;;;;;;4994068;28;20414;-85
2021/03/20 09:55:30;;;;;;;2.75;1.38;;;6.00;88.40;;;;;;5018223;28;20927;-84
2021/03/20 09:57:58;;;;;;;4.23;1.30;;;6.00;87.50;;;;;;5016253;28;20377;-85
2021/03/20 10:00:51;;;;;;;3.60;1.30;;;5.90;86.00;;;;;;5033124;28;20378;-88
2021/03/20 10:03:35;;;;;;;2.55;1.60;;;5.80;81.50;;;;;;4995848;28;20478;-86
2021/03/20 10:06:16;;;;;;;2.60;1.50;;;5.60;85.00;;;;;;5022065;28;20392;-86
2021/03/20 10:08:45;;;;;;;2.78;1.60;;;5.60;85.20;;;;;;5028657;28;20776;-86
2021/03/20 10:11:57;;;;;;;4.15;1.58;;;5.60;84.20;;;;;;5000996;28;20413;-87
2021/03/20 10:14:22;;;;;;;3.75;1.80;;;5.60;87.00;;;;;;4960133;28;20430;-85
2021/03/20 10:17:06;;;;;;;2.90;1.48;;;5.60;86.00;;;;;;5027290;28;20880;-87
2021/03/20 10:19:40;;;;;;;2.72;1.48;;;5.70;86.60;;;;;;5003128;28;20487;-87
2021/03/20 10:22:18;;;;;;;1.92;1.30;;;5.70;83.20;;;;;;5018035;28;20393;-87
2021/03/20 10:24:50;;;;;;;4.50;1.50;;;5.90;81.90;;;;;;5005853;28;20394;-87
2021/03/20 10:27:25;;;;;;;2.70;1.42;;;6.00;81.30;;;;;;5019022;28;20975;-86
2021/03/20 10:29:51;;;;;;;2.58;1.52;;;5.80;81.20;;;;;;5014923;28;20455;-86
2021/03/20 10:32:23;;;;;;;2.60;1.60;;;5.60;82.00;;;;;;5030390;28;20826;-87
2021/03/20 10:35:05;;;;;;;2.47;1.38;;;5.40;83.20;;;;;;5014523;28;20374;-86
2021/03/20 10:37:33;;;;;;;3.00;1.50;;;5.30;81.30;;;;;;5014336;28;20447;-86
2021/03/20 10:40:28;;;;;;;3.05;1.60;;;5.40;80.50;;;;;;5035035;28;20372;-85
2021/03/20 10:43:01;;;;;;;2.13;1.40;;;4.90;81.70;;;;;;5027282;28;20381;-86
2021/03/20 10:45:37;;;;;;;2.45;1.40;;;5.00;85.10;;;;;;5020934;28;20391;-85
2021/03/20 10:48:07;;;;;;;3.33;1.77;;;5.10;84.20;;;;;;5020473;28;20487;-86
2021/03/20 10:50:41;;;;;;;3.55;1.90;;;5.20;85.60;;;;;;5023885;28;20381;-88
2021/03/20 10:53:18;;;;;;;3.15;1.90;;;5.10;83.00;;;;;;5026837;28;20421;-87
2021/03/20 10:55:57;;;;;;;4.68;2.17;;;5.30;84.40;;;;;;4984618;28;20396;-90
2021/03/20 10:58:28;;;;;;;4.30;2.25;;;5.30;88.90;;;;;;5016339;28;20510;-86
2021/03/20 11:00:54;;;;;;;3.63;1.97;;;5.70;87.70;;;;;;5028425;28;20412;-85
2021/03/20 11:03:39;;;;;;;4.03;1.93;;;6.00;87.60;;;;;;5016385;28;20404;-85
2021/03/20 11:06:11;;;;;;;4.30;2.55;;;6.20;86.20;;;;;;5007818;28;20406;-85
2021/03/20 11:08:38;;;;;;;3.33;2.30;;;6.40;84.10;;;;;;5010405;28;20399;-84
2021/03/20 11:11:29;;;;;;;4.80;2.63;;;6.20;82.60;;;;;;5017336;28;20419;-85
2021/03/20 11:14:06;;;;;;;4.97;2.45;;;6.20;83.90;;;;;;5030852;28;20485;-84
2021/03/20 11:16:33;;;;;;;4.50;2.55;;;6.40;85.90;;;;;;5017489;28;20942;-85
2021/03/20 11:19:18;;;;;;;4.20;2.00;;;6.50;87.00;;;;;;5035645;28;20397;-85
2021/03/20 11:21:49;;;;;;;4.32;2.85;;;6.50;87.10;;;;;;5032496;28;20391;-85
2021/03/20 11:24:29;;;;;;;3.28;2.20;;;6.80;88.90;;;;;;5033944;28;20378;-84
2021/03/20 11:26:57;;;;;;;4.60;2.17;;;6.90;87.00;;;;;;5034953;28;20377;-85
2021/03/20 11:29:28;;;;;;;5.05;2.15;;;7.00;85.80;;;;;;5033276;28;20482;-85
2021/03/20 11:32:02;;;;;;;4.75;2.50;;;6.70;80.00;;;;;;5011876;28;20439;-85
2021/03/20 11:34:40;;;;;;;5.30;2.42;;;6.50;82.20;;;;;;5036575;28;21123;-85
2021/03/20 11:37:25;;;;;;;3.85;2.40;;;6.70;86.40;;;;;;5035247;28;20502;-84
2021/03/20 11:39:58;;;;;;;3.58;2.03;;;6.40;81.80;;;;;;5035359;28;20482;-84
2021/03/20 11:42:35;;;;;;;3.35;2.00;;;6.50;82.10;;;;;;5016178;28;20397;-85
2021/03/20 11:45:10;;;;;;;3.75;2.10;;;6.60;79.30;;;;;;5015544;28;21071;-85
2021/03/20 11:47:38;;;;;;;5.00;2.10;;;6.20;76.00;;;;;;5034513;28;20504;-85
2021/03/20 11:50:21;;;;;;;3.15;1.50;;;6.20;80.60;;;;;;5032602;28;20426;-84
2021/03/20 11:52:49;;;;;;;4.27;2.00;;;6.40;79.70;;;;;;5007152;28;20553;-84
2021/03/20 11:55:19;;;;;;;3.88;1.67;;;6.50;77.60;;;;;;5008273;28;20401;-86
2021/03/20 11:57:46;;;;;;;3.95;1.98;;;6.30;76.80;;;;;;5010552;28;21022;-85
2021/03/20 12:00:43;;;;;;;3.72;2.10;;;6.30;79.50;;;;;;5010154;28;20801;-85
2021/03/20 12:03:31;;;;;;;3.10;1.70;;;6.50;79.70;;;;;;5032982;28;20458;-85
2021/03/20 12:06:28;;;;;;;2.65;1.70;;;6.50;75.80;;;;;;5011104;28;20484;-84
2021/03/20 12:09:00;;;;;;;4.07;1.77;;;6.70;75.60;;;;;;5005489;28;22181;-85
2021/03/20 12:11:45;;;;;;;3.10;1.90;;;6.90;72.90;;;;;;5026787;28;20413;-84
2021/03/20 12:14:35;;;;;;;3.05;1.73;;;6.10;72.50;;;;;;5010445;28;20401;-84
2021/03/20 12:17:09;;;;;;;2.53;1.92;;;6.00;74.60;;;;;;5031431;28;20456;-84
2021/03/20 12:20:01;;;;;;;4.00;1.70;;;6.10;76.50;;;;;;5009181;28;20839;-84
2021/03/20 12:22:46;;;;;;;4.32;2.15;;;6.30;76.10;;;;;;5030945;28;20401;-85
2021/03/20 12:25:35;;;;;;;3.38;2.10;;;6.50;76.90;;;;;;5015812;28;20381;-86
2021/03/20 12:28:32;;;;;;;3.20;1.80;;;6.70;78.20;;;;;;5015752;28;20741;-87
2021/03/20 12:31:17;;;;;;;3.60;2.00;;;6.60;74.10;;;;;;5013970;28;20387;-84
2021/03/20 12:34:23;;;;;;;3.78;2.58;;;6.40;79.80;;;;;;5013907;28;20887;-85
2021/03/20 12:36:50;;;;;;;2.42;1.52;;;6.70;78.90;;;;;;5015615;28;20975;-87
2021/03/20 12:39:19;;;;;;;3.15;1.80;;;6.80;74.70;;;;;;5015564;28;21023;-86
2021/03/20 12:41:49;;;;;;;4.10;1.95;;;6.70;76.80;;;;;;5034432;28;20385;-85
2021/03/20 12:44:26;;;;;;;4.05;2.15;;;6.90;77.50;;;;;;5008383;28;20852;-85
2021/03/20 12:46:59;;;;;;;4.87;3.23;;;6.90;77.00;;;;;;5034091;28;20738;-87
2021/03/20 12:49:29;;;;;;;5.97;2.83;;;7.10;78.90;;;;;;5018339;28;20394;-86
2021/03/20 12:52:00;;;;;;;4.03;2.40;;;7.30;80.70;;;;;;5017557;28;20431;-86
2021/03/20 12:54:36;;;;;;;4.60;2.20;;;7.30;76.40;;;;;;5035641;28;20389;-86
2021/03/20 12:57:01;;;;;;;3.17;2.30;;;7.10;76.80;;;;;;5034862;28;20384;-86
2021/03/20 12:59:27;;;;;;;3.65;2.78;;;7.00;75.70;;;;;;5011353;28;20841;-85
2021/03/20 13:01:53;;;;;;;3.90;2.70;;;6.90;77.10;;;;;;5035519;28;20407;-85
2021/03/20 13:04:21;;;;;;;3.97;2.67;;;6.90;78.10;;;;;;5026451;28;20425;-87
2021/03/20 13:06:47;;;;;;;4.20;2.60;;;6.80;76.40;;;;;;5002967;28;20432;-86
2021/03/20 13:09:18;;;;;;;4.75;2.95;;;7.00;78.30;;;;;;5010196;28;20380;-85
2021/03/20 13:11:45;;;;;;;3.88;2.78;;;7.00;77.50;;;;;;5008544;28;20405;-84
2021/03/20 13:14:12;;;;;;;4.13;2.60;;;7.00;76.20;;;;;;5008497;28;20533;-85
2021/03/20 13:16:38;;;;;;;5.38;3.17;;;6.90;74.60;;;;;;5012790;28;20436;-84
2021/03/20 13:19:04;;;;;;;3.50;2.95;;;7.00;79.90;;;;;;5003152;28;20485;-85
2021/03/20 13:21:30;;;;;;;4.47;3.20;;;7.30;76.00;;;;;;5003048;28;20405;-85
2021/03/20 13:23:57;;;;;;;4.03;3.00;;;7.40;77.30;;;;;;5011796;28;20398;-84
2021/03/20 13:26:23;;;;;;;4.53;3.10;;;7.40;78.80;;;;;;5012783;28;20939;-85
2021/03/20 13:28:51;;;;;;;4.47;3.05;;;7.60;76.30;;;;;;5030987;28;20397;-86
2021/03/20 13:31:17;;;;;;;4.95;3.03;;;7.80;75.70;;;;;;5036050;28;20403;-85
2021/03/20 13:33:42;;;;;;;5.35;2.80;;;7.80;75.40;;;;;;5037330;28;20420;-85
2021/03/20 13:36:10;;;;;;;3.80;2.47;;;7.60;74.50;;;;;;5016524;28;20394;-85